sensor_id;sensor_type;location;lat;lon;timestamp;pressure;altitude;pressure_sealevel;temperature;humidity
48555;BME280;34336;48.270;16.716;2023-07-13T00:00:48;109325.25;;;18.16;85.99
48555;BME280;34336;48.270;16.716;2023-07-13T00:03:14;109325.25;;;18.16;86.33
48555;BME280;34336;48.270;16.716;2023-07-13T00:05:41;109325.25;;;18.16;86.23
48555;BME280;34336;48.270;16.716;2023-07-13T00:08:08;109325.25;;;18.16;86.33
48555;BME280;34336;48.270;16.716;2023-07-13T00:10:38;109325.25;;;18.16;86.26
48555;BME280;34336;48.270;16.716;2023-07-13T00:13:05;109325.25;;;18.16;85.43
48555;BME280;34336;48.270;16.716;2023-07-13T00:15:32;109325.25;;;18.16;84.89
48555;BME280;34336;48.270;16.716;2023-07-13T00:17:59;109325.25;;;18.16;84.64
48555;BME280;34336;48.270;16.716;2023-07-13T00:20:27;109325.25;;;18.16;85.00
48555;BME280;34336;48.270;16.716;2023-07-13T00:22:54;109325.25;;;18.16;85.01
48555;BME280;34336;48.270;16.716;2023-07-13T00:25:21;109325.25;;;18.16;85.52
48555;BME280;34336;48.270;16.716;2023-07-13T00:27:51;109325.25;;;18.16;86.06
48555;BME280;34336;48.270;16.716;2023-07-13T00:30:18;109325.25;;;18.16;86.79
48555;BME280;34336;48.270;16.716;2023-07-13T00:32:45;109325.25;;;18.16;87.59
48555;BME280;34336;48.270;16.716;2023-07-13T00:35:13;109325.25;;;18.16;88.12
48555;BME280;34336;48.270;16.716;2023-07-13T00:37:40;109325.25;;;18.16;88.30
48555;BME280;34336;48.270;16.716;2023-07-13T00:40:07;109325.25;;;18.16;88.36
48555;BME280;34336;48.270;16.716;2023-07-13T00:42:34;109325.25;;;18.16;88.54
48555;BME280;34336;48.270;16.716;2023-07-13T00:45:03;109325.25;;;18.16;88.69
48555;BME280;34336;48.270;16.716;2023-07-13T00:47:30;109325.25;;;18.16;88.99
48555;BME280;34336;48.270;16.716;2023-07-13T00:49:57;109325.25;;;18.16;89.21
48555;BME280;34336;48.270;16.716;2023-07-13T00:52:25;109325.25;;;18.16;89.63
48555;BME280;34336;48.270;16.716;2023-07-13T00:54:53;109325.25;;;18.16;89.95
48555;BME280;34336;48.270;16.716;2023-07-13T00:57:20;109325.25;;;18.16;89.78
48555;BME280;34336;48.270;16.716;2023-07-13T00:59:49;109325.25;;;18.16;89.93
48555;BME280;34336;48.270;16.716;2023-07-13T01:02:17;109325.25;;;18.16;90.22
48555;BME280;34336;48.270;16.716;2023-07-13T01:04:44;109325.25;;;18.16;90.82
48555;BME280;34336;48.270;16.716;2023-07-13T01:07:11;109325.25;;;18.16;90.88
48555;BME280;34336;48.270;16.716;2023-07-13T01:09:38;109325.25;;;18.16;90.65
48555;BME280;34336;48.270;16.716;2023-07-13T01:12:05;109325.25;;;18.16;90.41
48555;BME280;34336;48.270;16.716;2023-07-13T01:14:32;109325.25;;;18.16;90.32
48555;BME280;34336;48.270;16.716;2023-07-13T01:16:59;109325.25;;;18.16;90.38
48555;BME280;34336;48.270;16.716;2023-07-13T01:22:04;109325.25;;;18.16;90.92
48555;BME280;34336;48.270;16.716;2023-07-13T01:24:32;109325.25;;;18.16;90.40
48555;BME280;34336;48.270;16.716;2023-07-13T01:26:59;109325.25;;;18.16;90.78
48555;BME280;34336;48.270;16.716;2023-07-13T01:29:26;109325.25;;;18.16;91.28
48555;BME280;34336;48.270;16.716;2023-07-13T01:31:52;109325.25;;;18.16;90.84
48555;BME280;34336;48.270;16.716;2023-07-13T01:34:19;109325.25;;;18.16;90.71
48555;BME280;34336;48.270;16.716;2023-07-13T01:36:45;109325.25;;;18.16;90.61
48555;BME280;34336;48.270;16.716;2023-07-13T01:39:12;109325.25;;;18.16;90.17
48555;BME280;34336;48.270;16.716;2023-07-13T01:41:39;109325.25;;;18.16;89.43
48555;BME280;34336;48.270;16.716;2023-07-13T01:44:06;109325.25;;;18.16;89.65
48555;BME280;34336;48.270;16.716;2023-07-13T01:46:33;109325.25;;;18.16;89.67
48555;BME280;34336;48.270;16.716;2023-07-13T01:48:59;109325.25;;;18.16;89.32
48555;BME280;34336;48.270;16.716;2023-07-13T01:51:26;109325.25;;;18.16;89.07
48555;BME280;34336;48.270;16.716;2023-07-13T01:53:52;109325.25;;;18.16;89.55
48555;BME280;34336;48.270;16.716;2023-07-13T01:56:19;109325.25;;;18.16;89.89
48555;BME280;34336;48.270;16.716;2023-07-13T01:58:46;109325.25;;;18.16;91.08
48555;BME280;34336;48.270;16.716;2023-07-13T02:01:13;109325.25;;;18.16;91.50
48555;BME280;34336;48.270;16.716;2023-07-13T02:03:40;109325.25;;;18.16;91.58
48555;BME280;34336;48.270;16.716;2023-07-13T02:06:06;109325.25;;;18.16;91.54
48555;BME280;34336;48.270;16.716;2023-07-13T02:08:33;109325.25;;;18.16;91.58
48555;BME280;34336;48.270;16.716;2023-07-13T02:11:02;109325.25;;;18.16;91.98
48555;BME280;34336;48.270;16.716;2023-07-13T02:13:29;109325.25;;;18.16;92.14
48555;BME280;34336;48.270;16.716;2023-07-13T02:15:56;109325.25;;;18.16;92.85
48555;BME280;34336;48.270;16.716;2023-07-13T02:18:23;109325.25;;;18.16;92.86
48555;BME280;34336;48.270;16.716;2023-07-13T02:20:49;109325.25;;;18.16;93.33
48555;BME280;34336;48.270;16.716;2023-07-13T02:23:16;109325.25;;;18.16;93.91
48555;BME280;34336;48.270;16.716;2023-07-13T02:25:45;109325.25;;;18.16;94.35
48555;BME280;34336;48.270;16.716;2023-07-13T02:28:14;109325.25;;;18.16;94.69
48555;BME280;34336;48.270;16.716;2023-07-13T02:30:41;109325.25;;;18.16;94.65
48555;BME280;34336;48.270;16.716;2023-07-13T02:33:07;109325.25;;;18.16;94.06
48555;BME280;34336;48.270;16.716;2023-07-13T02:35:34;109325.25;;;18.16;94.83
48555;BME280;34336;48.270;16.716;2023-07-13T02:38:01;109325.25;;;18.16;95.33
48555;BME280;34336;48.270;16.716;2023-07-13T02:40:28;109325.25;;;18.16;95.70
48555;BME280;34336;48.270;16.716;2023-07-13T02:42:55;109325.25;;;18.16;96.10
48555;BME280;34336;48.270;16.716;2023-07-13T02:45:22;109325.25;;;18.16;97.09
48555;BME280;34336;48.270;16.716;2023-07-13T02:47:48;109325.25;;;18.16;97.19
48555;BME280;34336;48.270;16.716;2023-07-13T02:50:16;109325.25;;;18.16;97.33
48555;BME280;34336;48.270;16.716;2023-07-13T02:52:43;109325.25;;;18.16;97.21
48555;BME280;34336;48.270;16.716;2023-07-13T02:55:09;109325.25;;;18.16;96.68
48555;BME280;34336;48.270;16.716;2023-07-13T02:57:36;109325.25;;;18.16;96.26
48555;BME280;34336;48.270;16.716;2023-07-13T03:00:03;109325.25;;;18.16;95.64
48555;BME280;34336;48.270;16.716;2023-07-13T03:02:33;109325.25;;;18.16;95.79
48555;BME280;34336;48.270;16.716;2023-07-13T03:05:01;109325.25;;;18.16;95.94
48555;BME280;34336;48.270;16.716;2023-07-13T03:07:29;109325.25;;;18.16;95.49
48555;BME280;34336;48.270;16.716;2023-07-13T03:09:57;109325.25;;;18.16;95.43
48555;BME280;34336;48.270;16.716;2023-07-13T03:12:32;109325.25;;;18.16;95.65
48555;BME280;34336;48.270;16.716;2023-07-13T03:15:01;109325.25;;;18.16;95.94
48555;BME280;34336;48.270;16.716;2023-07-13T03:17:29;109325.25;;;18.16;96.42
48555;BME280;34336;48.270;16.716;2023-07-13T03:19:56;109325.25;;;18.16;96.42
48555;BME280;34336;48.270;16.716;2023-07-13T03:22:24;109325.25;;;18.16;96.35
48555;BME280;34336;48.270;16.716;2023-07-13T03:24:51;109325.25;;;18.16;96.55
48555;BME280;34336;48.270;16.716;2023-07-13T03:27:18;109325.25;;;18.16;96.76
48555;BME280;34336;48.270;16.716;2023-07-13T03:29:47;109325.25;;;18.16;96.82
48555;BME280;34336;48.270;16.716;2023-07-13T03:32:16;109325.25;;;18.16;96.94
48555;BME280;34336;48.270;16.716;2023-07-13T03:34:42;109325.25;;;18.16;97.24
48555;BME280;34336;48.270;16.716;2023-07-13T03:37:09;109325.25;;;18.16;97.80
48555;BME280;34336;48.270;16.716;2023-07-13T03:39:36;109325.25;;;18.16;98.11
48555;BME280;34336;48.270;16.716;2023-07-13T03:42:03;109325.25;;;18.16;97.82
48555;BME280;34336;48.270;16.716;2023-07-13T03:44:30;109325.25;;;18.16;98.24
48555;BME280;34336;48.270;16.716;2023-07-13T03:46:57;109325.25;;;18.16;98.58
48555;BME280;34336;48.270;16.716;2023-07-13T03:49:23;109325.25;;;18.16;98.74
48555;BME280;34336;48.270;16.716;2023-07-13T03:51:50;109325.25;;;18.16;98.93
48555;BME280;34336;48.270;16.716;2023-07-13T03:54:19;109325.25;;;18.16;99.31
48555;BME280;34336;48.270;16.716;2023-07-13T03:56:46;109325.25;;;18.16;99.33
48555;BME280;34336;48.270;16.716;2023-07-13T03:59:14;109325.25;;;18.16;98.55
48555;BME280;34336;48.270;16.716;2023-07-13T04:01:41;109325.25;;;18.16;99.28
48555;BME280;34336;48.270;16.716;2023-07-13T04:04:08;109325.25;;;18.16;99.53
48555;BME280;34336;48.270;16.716;2023-07-13T04:06:34;109325.25;;;18.16;99.86
48555;BME280;34336;48.270;16.716;2023-07-13T04:09:02;109325.25;;;18.16;99.97
48555;BME280;34336;48.270;16.716;2023-07-13T04:11:32;109325.25;;;18.16;99.74
48555;BME280;34336;48.270;16.716;2023-07-13T04:13:59;109325.25;;;18.16;98.43
48555;BME280;34336;48.270;16.716;2023-07-13T04:16:26;109325.25;;;18.16;98.98
48555;BME280;34336;48.270;16.716;2023-07-13T04:18:53;109325.25;;;18.16;98.95
48555;BME280;34336;48.270;16.716;2023-07-13T04:21:21;109325.25;;;18.16;99.11
48555;BME280;34336;48.270;16.716;2023-07-13T04:23:48;109325.25;;;18.16;99.51
48555;BME280;34336;48.270;16.716;2023-07-13T04:26:15;109325.25;;;18.16;99.69
48555;BME280;34336;48.270;16.716;2023-07-13T04:28:41;109325.25;;;18.16;100.00
48555;BME280;34336;48.270;16.716;2023-07-13T04:31:08;109325.25;;;18.16;100.00
48555;BME280;34336;48.270;16.716;2023-07-13T04:33:35;109325.25;;;18.16;100.00
48555;BME280;34336;48.270;16.716;2023-07-13T04:36:01;109325.25;;;18.16;100.00
48555;BME280;34336;48.270;16.716;2023-07-13T04:38:28;109325.25;;;18.16;100.00
48555;BME280;34336;48.270;16.716;2023-07-13T04:40:56;109325.25;;;18.16;100.00
48555;BME280;34336;48.270;16.716;2023-07-13T04:43:23;109325.25;;;18.16;100.00
48555;BME280;34336;48.270;16.716;2023-07-13T04:45:50;109325.25;;;18.16;100.00
48555;BME280;34336;48.270;16.716;2023-07-13T04:48:17;109325.25;;;18.16;100.00
48555;BME280;34336;48.270;16.716;2023-07-13T04:50:45;109325.25;;;18.16;100.00
48555;BME280;34336;48.270;16.716;2023-07-13T04:53:11;109325.25;;;18.16;100.00
48555;BME280;34336;48.270;16.716;2023-07-13T04:55:38;109325.25;;;18.16;100.00
48555;BME280;34336;48.270;16.716;2023-07-13T04:58:05;109325.25;;;18.16;100.00
48555;BME280;34336;48.270;16.716;2023-07-13T05:00:31;109325.25;;;18.16;100.00
48555;BME280;34336;48.270;16.716;2023-07-13T05:02:58;109325.25;;;18.16;100.00
48555;BME280;34336;48.270;16.716;2023-07-13T05:05:25;109325.25;;;18.16;100.00
48555;BME280;34336;48.270;16.716;2023-07-13T05:07:52;109325.25;;;18.16;100.00
48555;BME280;34336;48.270;16.716;2023-07-13T05:10:19;109325.25;;;18.16;99.69
48555;BME280;34336;48.270;16.716;2023-07-13T05:12:46;109325.25;;;18.16;99.56
48555;BME280;34336;48.270;16.716;2023-07-13T05:15:13;109325.25;;;18.16;98.98
48555;BME280;34336;48.270;16.716;2023-07-13T05:17:39;109325.25;;;18.16;98.89
48555;BME280;34336;48.270;16.716;2023-07-13T05:20:08;109325.25;;;18.16;97.66
48555;BME280;34336;48.270;16.716;2023-07-13T05:22:35;109325.25;;;18.16;97.92
48555;BME280;34336;48.270;16.716;2023-07-13T05:25:04;109325.25;;;18.16;97.81
48555;BME280;34336;48.270;16.716;2023-07-13T05:27:30;109325.25;;;18.16;97.18
48555;BME280;34336;48.270;16.716;2023-07-13T05:29:57;109325.25;;;18.16;95.07
48555;BME280;34336;48.270;16.716;2023-07-13T05:32:24;109325.25;;;18.16;96.03
48555;BME280;34336;48.270;16.716;2023-07-13T05:34:51;109325.25;;;18.16;95.42
48555;BME280;34336;48.270;16.716;2023-07-13T05:37:18;109325.25;;;18.16;95.73
48555;BME280;34336;48.270;16.716;2023-07-13T05:39:45;109325.25;;;18.16;93.97
48555;BME280;34336;48.270;16.716;2023-07-13T05:42:11;109325.25;;;18.16;92.79
48555;BME280;34336;48.270;16.716;2023-07-13T05:44:38;109325.25;;;18.16;90.79
48555;BME280;34336;48.270;16.716;2023-07-13T05:47:05;109325.25;;;18.16;90.74
48555;BME280;34336;48.270;16.716;2023-07-13T05:49:33;109325.25;;;18.16;88.77
48555;BME280;34336;48.270;16.716;2023-07-13T05:52:00;109325.25;;;18.16;88.07
48555;BME280;34336;48.270;16.716;2023-07-13T05:54:26;109325.25;;;18.16;87.60
48555;BME280;34336;48.270;16.716;2023-07-13T05:56:54;109325.25;;;18.16;88.03
48555;BME280;34336;48.270;16.716;2023-07-13T05:59:20;109325.25;;;18.16;88.22
48555;BME280;34336;48.270;16.716;2023-07-13T06:01:48;109325.25;;;18.16;88.17
48555;BME280;34336;48.270;16.716;2023-07-13T06:04:16;109325.25;;;18.16;87.45
48555;BME280;34336;48.270;16.716;2023-07-13T06:06:42;109325.25;;;18.16;87.46
48555;BME280;34336;48.270;16.716;2023-07-13T06:09:09;109325.25;;;18.16;87.74
48555;BME280;34336;48.270;16.716;2023-07-13T06:11:36;109325.25;;;18.16;87.47
48555;BME280;34336;48.270;16.716;2023-07-13T06:14:03;109325.25;;;18.16;86.77
48555;BME280;34336;48.270;16.716;2023-07-13T06:16:30;109325.25;;;18.16;88.82
48555;BME280;34336;48.270;16.716;2023-07-13T06:18:57;109325.25;;;18.16;89.45
48555;BME280;34336;48.270;16.716;2023-07-13T06:21:24;109325.25;;;18.16;89.92
48555;BME280;34336;48.270;16.716;2023-07-13T06:23:51;109325.25;;;18.16;89.60
48555;BME280;34336;48.270;16.716;2023-07-13T06:26:18;109325.25;;;18.16;89.95
48555;BME280;34336;48.270;16.716;2023-07-13T06:28:45;109325.25;;;18.16;91.26
48555;BME280;34336;48.270;16.716;2023-07-13T06:31:13;109325.25;;;18.16;91.37
48555;BME280;34336;48.270;16.716;2023-07-13T06:33:41;109325.25;;;18.16;91.55
48555;BME280;34336;48.270;16.716;2023-07-13T06:36:08;109325.25;;;18.16;92.67
48555;BME280;34336;48.270;16.716;2023-07-13T06:38:36;109325.25;;;18.16;93.26
48555;BME280;34336;48.270;16.716;2023-07-13T06:41:04;109325.25;;;18.16;92.78
48555;BME280;34336;48.270;16.716;2023-07-13T06:43:31;109325.25;;;18.16;92.33
48555;BME280;34336;48.270;16.716;2023-07-13T06:45:58;109325.25;;;18.16;91.55
48555;BME280;34336;48.270;16.716;2023-07-13T06:48:26;109325.25;;;18.16;90.22
48555;BME280;34336;48.270;16.716;2023-07-13T06:50:53;109325.25;;;18.16;89.60
48555;BME280;34336;48.270;16.716;2023-07-13T06:53:20;109325.25;;;18.16;89.17
48555;BME280;34336;48.270;16.716;2023-07-13T06:55:47;109325.25;;;18.16;88.28
48555;BME280;34336;48.270;16.716;2023-07-13T06:58:15;109325.25;;;18.16;87.35
48555;BME280;34336;48.270;16.716;2023-07-13T07:00:42;109325.25;;;18.16;86.33
48555;BME280;34336;48.270;16.716;2023-07-13T07:03:09;109325.25;;;18.16;85.75
48555;BME280;34336;48.270;16.716;2023-07-13T07:05:37;109325.25;;;18.16;85.93
48555;BME280;34336;48.270;16.716;2023-07-13T07:08:04;109325.25;;;18.16;85.67
48555;BME280;34336;48.270;16.716;2023-07-13T07:10:31;109325.25;;;18.16;85.98
48555;BME280;34336;48.270;16.716;2023-07-13T07:12:58;109325.25;;;18.16;85.49
48555;BME280;34336;48.270;16.716;2023-07-13T07:15:25;109325.25;;;18.16;85.00
48555;BME280;34336;48.270;16.716;2023-07-13T07:17:53;109325.25;;;18.16;84.96
48555;BME280;34336;48.270;16.716;2023-07-13T07:20:20;109325.25;;;18.16;86.22
48555;BME280;34336;48.270;16.716;2023-07-13T07:22:47;109325.25;;;18.16;84.78
48555;BME280;34336;48.270;16.716;2023-07-13T07:25:15;109325.25;;;18.16;84.87
48555;BME280;34336;48.270;16.716;2023-07-13T07:27:42;109325.25;;;18.16;83.11
48555;BME280;34336;48.270;16.716;2023-07-13T07:30:12;109325.25;;;18.16;79.59
48555;BME280;34336;48.270;16.716;2023-07-13T07:32:41;109325.25;;;18.16;77.06
48555;BME280;34336;48.270;16.716;2023-07-13T07:35:11;109325.25;;;18.16;74.15
48555;BME280;34336;48.270;16.716;2023-07-13T07:37:37;109325.25;;;18.16;72.62
48555;BME280;34336;48.270;16.716;2023-07-13T07:40:07;109325.25;;;18.16;69.03
48555;BME280;34336;48.270;16.716;2023-07-13T07:42:37;109325.25;;;18.16;68.69
48555;BME280;34336;48.270;16.716;2023-07-13T07:45:03;109325.25;;;18.16;68.60
48555;BME280;34336;48.270;16.716;2023-07-13T07:47:30;109325.25;;;18.16;66.89
48555;BME280;34336;48.270;16.716;2023-07-13T07:49:57;109325.25;;;18.16;67.97
48555;BME280;34336;48.270;16.716;2023-07-13T07:52:24;109325.25;;;18.16;68.33
48555;BME280;34336;48.270;16.716;2023-07-13T07:54:50;109325.25;;;18.16;67.69
48555;BME280;34336;48.270;16.716;2023-07-13T07:57:20;109325.25;;;18.16;67.75
48555;BME280;34336;48.270;16.716;2023-07-13T07:59:49;109325.25;;;18.16;67.94
48555;BME280;34336;48.270;16.716;2023-07-13T08:02:19;109325.25;;;18.16;68.20
48555;BME280;34336;48.270;16.716;2023-07-13T08:04:48;109325.25;;;18.16;67.69
48555;BME280;34336;48.270;16.716;2023-07-13T08:07:18;109325.25;;;18.16;69.35
48555;BME280;34336;48.270;16.716;2023-07-13T08:09:45;109325.25;;;18.16;70.01
48555;BME280;34336;48.270;16.716;2023-07-13T08:12:13;109325.25;;;18.16;68.66
48555;BME280;34336;48.270;16.716;2023-07-13T08:14:42;109325.25;;;18.16;68.81
48555;BME280;34336;48.270;16.716;2023-07-13T08:17:21;109325.25;;;18.16;67.83
48555;BME280;34336;48.270;16.716;2023-07-13T08:19:48;109325.25;;;18.16;69.03
48555;BME280;34336;48.270;16.716;2023-07-13T08:22:15;109325.25;;;18.16;67.76
48555;BME280;34336;48.270;16.716;2023-07-13T08:24:41;109325.25;;;18.16;67.49
48555;BME280;34336;48.270;16.716;2023-07-13T08:27:11;109325.25;;;18.16;68.45
48555;BME280;34336;48.270;16.716;2023-07-13T08:29:38;109325.25;;;18.16;68.31
48555;BME280;34336;48.270;16.716;2023-07-13T08:32:05;109325.25;;;18.16;67.02
48555;BME280;34336;48.270;16.716;2023-07-13T08:34:36;109325.25;;;18.16;64.25
48555;BME280;34336;48.270;16.716;2023-07-13T08:37:03;109325.25;;;18.16;62.21
48555;BME280;34336;48.270;16.716;2023-07-13T08:39:31;109325.25;;;18.16;61.34
48555;BME280;34336;48.270;16.716;2023-07-13T08:42:00;109325.25;;;18.16;59.19
48555;BME280;34336;48.270;16.716;2023-07-13T08:44:40;109325.25;;;18.16;57.46
48555;BME280;34336;48.270;16.716;2023-07-13T08:47:11;109325.25;;;18.16;54.31
48555;BME280;34336;48.270;16.716;2023-07-13T08:49:38;109325.25;;;18.16;54.74
48555;BME280;34336;48.270;16.716;2023-07-13T08:52:29;109325.25;;;18.16;53.41
48555;BME280;34336;48.270;16.716;2023-07-13T08:54:53;109325.25;;;18.16;52.67
48555;BME280;34336;48.270;16.716;2023-07-13T08:57:23;109325.25;;;18.16;52.26
48555;BME280;34336;48.270;16.716;2023-07-13T08:59:51;109325.25;;;18.16;52.85
48555;BME280;34336;48.270;16.716;2023-07-13T09:02:20;109325.25;;;18.16;51.76
48555;BME280;34336;48.270;16.716;2023-07-13T09:04:53;109325.25;;;18.16;50.91
48555;BME280;34336;48.270;16.716;2023-07-13T09:12:23;109325.25;;;18.16;49.96
48555;BME280;34336;48.270;16.716;2023-07-13T09:14:54;109325.25;;;18.16;48.98
48555;BME280;34336;48.270;16.716;2023-07-13T09:17:31;109325.25;;;18.16;49.96
48555;BME280;34336;48.270;16.716;2023-07-13T09:20:00;109325.25;;;18.16;49.85
48555;BME280;34336;48.270;16.716;2023-07-13T09:22:31;109325.25;;;18.16;50.80
48555;BME280;34336;48.270;16.716;2023-07-13T09:28:59;109325.25;;;18.16;50.22
48555;BME280;34336;48.270;16.716;2023-07-13T09:31:32;109325.25;;;18.16;51.04
48555;BME280;34336;48.270;16.716;2023-07-13T09:34:00;109325.25;;;18.16;50.94
48555;BME280;34336;48.270;16.716;2023-07-13T09:36:28;109325.25;;;18.16;50.64
48555;BME280;34336;48.270;16.716;2023-07-13T09:39:02;109325.25;;;18.16;49.78
48555;BME280;34336;48.270;16.716;2023-07-13T09:41:39;109325.25;;;18.16;49.38
48555;BME280;34336;48.270;16.716;2023-07-13T09:46:39;109325.25;;;18.16;48.13
48555;BME280;34336;48.270;16.716;2023-07-13T09:49:10;109325.25;;;18.16;47.87
48555;BME280;34336;48.270;16.716;2023-07-13T09:51:41;109325.25;;;18.16;48.63
48555;BME280;34336;48.270;16.716;2023-07-13T09:54:17;109325.25;;;18.16;48.22
48555;BME280;34336;48.270;16.716;2023-07-13T09:56:45;109325.25;;;18.16;47.50
48555;BME280;34336;48.270;16.716;2023-07-13T09:59:22;109325.25;;;18.16;47.38
48555;BME280;34336;48.270;16.716;2023-07-13T10:01:51;109325.25;;;18.16;46.78
48555;BME280;34336;48.270;16.716;2023-07-13T10:04:19;109325.25;;;18.16;46.23
48555;BME280;34336;48.270;16.716;2023-07-13T10:06:47;109325.25;;;18.16;45.82
48555;BME280;34336;48.270;16.716;2023-07-13T10:09:17;109325.25;;;18.16;45.24
48555;BME280;34336;48.270;16.716;2023-07-13T10:11:45;109325.25;;;18.16;45.90
48555;BME280;34336;48.270;16.716;2023-07-13T10:14:20;109325.25;;;18.16;45.55
48555;BME280;34336;48.270;16.716;2023-07-13T10:16:49;109325.25;;;18.16;45.52
48555;BME280;34336;48.270;16.716;2023-07-13T10:19:26;109325.25;;;18.16;45.51
48555;BME280;34336;48.270;16.716;2023-07-13T10:21:57;109325.25;;;18.16;46.34
48555;BME280;34336;48.270;16.716;2023-07-13T10:24:30;109325.25;;;18.16;46.05
48555;BME280;34336;48.270;16.716;2023-07-13T10:27:09;109325.25;;;18.16;44.52
48555;BME280;34336;48.270;16.716;2023-07-13T10:29:44;109325.25;;;18.16;43.22
48555;BME280;34336;48.270;16.716;2023-07-13T10:32:13;109325.25;;;18.16;42.69
48555;BME280;34336;48.270;16.716;2023-07-13T10:34:43;109325.25;;;18.16;44.72
48555;BME280;34336;48.270;16.716;2023-07-13T10:37:16;109325.25;;;18.16;44.22
48555;BME280;34336;48.270;16.716;2023-07-13T10:39:44;109325.25;;;18.16;44.31
48555;BME280;34336;48.270;16.716;2023-07-13T10:42:11;109325.25;;;18.16;44.67
48555;BME280;34336;48.270;16.716;2023-07-13T10:44:41;109325.25;;;18.16;45.42
48555;BME280;34336;48.270;16.716;2023-07-13T10:47:15;109325.25;;;18.16;45.11
48555;BME280;34336;48.270;16.716;2023-07-13T10:49:44;109325.25;;;18.16;45.77
48555;BME280;34336;48.270;16.716;2023-07-13T10:55:00;109325.25;;;18.16;44.34
48555;BME280;34336;48.270;16.716;2023-07-13T10:57:30;109325.25;;;18.16;44.28
48555;BME280;34336;48.270;16.716;2023-07-13T11:02:31;109325.25;;;18.16;44.73
48555;BME280;34336;48.270;16.716;2023-07-13T11:04:58;109325.25;;;18.16;44.38
48555;BME280;34336;48.270;16.716;2023-07-13T11:07:53;109325.25;;;18.16;45.50
48555;BME280;34336;48.270;16.716;2023-07-13T11:13:29;109325.25;;;18.16;43.92
48555;BME280;34336;48.270;16.716;2023-07-13T11:15:55;109325.25;;;18.16;43.47
48555;BME280;34336;48.270;16.716;2023-07-13T11:18:22;109325.25;;;18.16;42.96
48555;BME280;34336;48.270;16.716;2023-07-13T11:20:50;109325.25;;;18.16;43.20
48555;BME280;34336;48.270;16.716;2023-07-13T11:23:19;109325.25;;;18.16;42.48
48555;BME280;34336;48.270;16.716;2023-07-13T11:25:47;109325.25;;;18.16;41.21
48555;BME280;34336;48.270;16.716;2023-07-13T11:28:18;109325.25;;;18.16;41.47
48555;BME280;34336;48.270;16.716;2023-07-13T11:33:25;109325.25;;;18.16;42.70
48555;BME280;34336;48.270;16.716;2023-07-13T11:36:10;109325.25;;;18.16;43.20
48555;BME280;34336;48.270;16.716;2023-07-13T11:41:12;109325.25;;;18.16;43.11
48555;BME280;34336;48.270;16.716;2023-07-13T11:43:42;109325.25;;;18.16;42.19
48555;BME280;34336;48.270;16.716;2023-07-13T11:46:15;109325.25;;;18.16;41.96
48555;BME280;34336;48.270;16.716;2023-07-13T11:48:44;109325.25;;;18.16;41.82
48555;BME280;34336;48.270;16.716;2023-07-13T11:51:14;109325.25;;;18.16;41.85
48555;BME280;34336;48.270;16.716;2023-07-13T11:53:45;109325.25;;;18.16;41.44
48555;BME280;34336;48.270;16.716;2023-07-13T11:56:13;109325.25;;;18.16;40.94
48555;BME280;34336;48.270;16.716;2023-07-13T11:58:41;109325.25;;;18.16;40.40
48555;BME280;34336;48.270;16.716;2023-07-13T12:01:22;109325.25;;;18.16;41.10
48555;BME280;34336;48.270;16.716;2023-07-13T12:03:50;109325.25;;;18.16;41.35
48555;BME280;34336;48.270;16.716;2023-07-13T12:06:25;109325.25;;;18.16;40.10
48555;BME280;34336;48.270;16.716;2023-07-13T12:09:01;109325.25;;;18.16;39.44
48555;BME280;34336;48.270;16.716;2023-07-13T12:11:30;109325.25;;;18.16;40.13
48555;BME280;34336;48.270;16.716;2023-07-13T12:13:58;109325.25;;;18.16;40.84
48555;BME280;34336;48.270;16.716;2023-07-13T12:16:29;109325.25;;;18.16;40.88
48555;BME280;34336;48.270;16.716;2023-07-13T12:18:56;109325.25;;;18.16;41.04
48555;BME280;34336;48.270;16.716;2023-07-13T12:21:30;109325.25;;;18.16;38.60
48555;BME280;34336;48.270;16.716;2023-07-13T12:23:57;109325.25;;;18.16;37.99
48555;BME280;34336;48.270;16.716;2023-07-13T12:26:25;109325.25;;;18.16;38.25
48555;BME280;34336;48.270;16.716;2023-07-13T12:28:53;109325.25;;;18.16;38.94
48555;BME280;34336;48.270;16.716;2023-07-13T12:34:00;109325.25;;;18.16;38.89
48555;BME280;34336;48.270;16.716;2023-07-13T12:36:29;109325.25;;;18.16;38.70
48555;BME280;34336;48.270;16.716;2023-07-13T12:38:57;109325.25;;;18.16;40.21
48555;BME280;34336;48.270;16.716;2023-07-13T12:41:25;109325.25;;;18.16;39.71
48555;BME280;34336;48.270;16.716;2023-07-13T12:43:53;109325.25;;;18.16;39.55
48555;BME280;34336;48.270;16.716;2023-07-13T12:46:21;109325.25;;;18.16;40.06
48555;BME280;34336;48.270;16.716;2023-07-13T12:48:51;109325.25;;;18.16;40.49
48555;BME280;34336;48.270;16.716;2023-07-13T12:51:33;109325.25;;;18.16;39.13
48555;BME280;34336;48.270;16.716;2023-07-13T12:54:15;109325.25;;;18.16;39.55
48555;BME280;34336;48.270;16.716;2023-07-13T12:56:42;109325.25;;;18.16;39.74
48555;BME280;34336;48.270;16.716;2023-07-13T12:59:15;109325.25;;;18.16;40.21
48555;BME280;34336;48.270;16.716;2023-07-13T13:01:43;109325.25;;;18.16;40.32
48555;BME280;34336;48.270;16.716;2023-07-13T13:04:10;109325.25;;;18.16;39.76
48555;BME280;34336;48.270;16.716;2023-07-13T13:06:37;109325.25;;;18.16;39.11
48555;BME280;34336;48.270;16.716;2023-07-13T13:09:05;109325.25;;;18.16;39.74
48555;BME280;34336;48.270;16.716;2023-07-13T13:11:40;109325.25;;;18.16;39.35
48555;BME280;34336;48.270;16.716;2023-07-13T13:14:07;109325.25;;;18.16;39.97
48555;BME280;34336;48.270;16.716;2023-07-13T13:16:37;109325.25;;;18.16;38.85